sensor_id;sensor_type;location;lat;lon;timestamp;P1;durP1;ratioP1;P2;durP2;ratioP2
33413;SDS011;60055;41.884;12.534;2024-03-29T00:01:18;40.33;;;6.75;;
33413;SDS011;60055;41.884;12.534;2024-03-29T00:03:43;52.72;;;7.57;;
33413;SDS011;60055;41.884;12.534;2024-03-29T00:06:09;49.35;;;7.38;;
33413;SDS011;60055;41.884;12.534;2024-03-29T00:08:35;46.50;;;6.68;;
33413;SDS011;60055;41.884;12.534;2024-03-29T00:11:02;45.30;;;6.88;;
33413;SDS011;60055;41.884;12.534;2024-03-29T00:13:28;48.13;;;6.53;;
33413;SDS011;60055;41.884;12.534;2024-03-29T00:15:53;48.80;;;6.50;;
33413;SDS011;60055;41.884;12.534;2024-03-29T00:18:19;47.17;;;7.68;;
33413;SDS011;60055;41.884;12.534;2024-03-29T00:20:45;46.08;;;5.78;;
33413;SDS011;60055;41.884;12.534;2024-03-29T00:23:11;59.55;;;6.55;;
33413;SDS011;60055;41.884;12.534;2024-03-29T00:25:36;53.72;;;7.05;;
33413;SDS011;60055;41.884;12.534;2024-03-29T00:28:02;53.63;;;6.38;;
33413;SDS011;60055;41.884;12.534;2024-03-29T00:30:28;58.90;;;6.85;;
33413;SDS011;60055;41.884;12.534;2024-03-29T00:32:54;55.20;;;7.22;;
33413;SDS011;60055;41.884;12.534;2024-03-29T00:35:20;47.90;;;7.15;;
33413;SDS011;60055;41.884;12.534;2024-03-29T00:37:56;54.25;;;7.00;;
33413;SDS011;60055;41.884;12.534;2024-03-29T00:40:22;46.95;;;6.97;;
33413;SDS011;60055;41.884;12.534;2024-03-29T00:42:47;49.17;;;7.05;;
33413;SDS011;60055;41.884;12.534;2024-03-29T00:45:13;43.92;;;7.00;;
33413;SDS011;60055;41.884;12.534;2024-03-29T00:47:38;46.22;;;7.50;;
33413;SDS011;60055;41.884;12.534;2024-03-29T00:50:04;57.90;;;7.07;;
33413;SDS011;60055;41.884;12.534;2024-03-29T00:52:30;43.33;;;6.82;;
33413;SDS011;60055;41.884;12.534;2024-03-29T00:54:55;64.70;;;7.68;;
33413;SDS011;60055;41.884;12.534;2024-03-29T00:57:21;55.65;;;7.63;;
33413;SDS011;60055;41.884;12.534;2024-03-29T00:59:46;44.70;;;6.43;;
33413;SDS011;60055;41.884;12.534;2024-03-29T01:02:12;51.17;;;7.30;;
33413;SDS011;60055;41.884;12.534;2024-03-29T01:04:37;50.33;;;7.45;;
33413;SDS011;60055;41.884;12.534;2024-03-29T01:07:05;60.22;;;7.28;;
33413;SDS011;60055;41.884;12.534;2024-03-29T01:09:31;53.47;;;6.68;;
33413;SDS011;60055;41.884;12.534;2024-03-29T01:11:56;52.90;;;6.50;;
33413;SDS011;60055;41.884;12.534;2024-03-29T01:14:22;54.65;;;7.32;;
33413;SDS011;60055;41.884;12.534;2024-03-29T01:16:47;54.33;;;6.47;;
33413;SDS011;60055;41.884;12.534;2024-03-29T01:19:13;53.58;;;7.43;;
33413;SDS011;60055;41.884;12.534;2024-03-29T01:21:38;55.47;;;6.93;;
33413;SDS011;60055;41.884;12.534;2024-03-29T01:24:04;54.70;;;7.18;;
33413;SDS011;60055;41.884;12.534;2024-03-29T01:26:30;51.22;;;6.88;;
33413;SDS011;60055;41.884;12.534;2024-03-29T01:28:56;53.40;;;7.70;;
33413;SDS011;60055;41.884;12.534;2024-03-29T01:31:22;49.25;;;6.50;;
33413;SDS011;60055;41.884;12.534;2024-03-29T01:33:48;45.28;;;6.53;;
33413;SDS011;60055;41.884;12.534;2024-03-29T01:36:14;41.65;;;6.50;;
33413;SDS011;60055;41.884;12.534;2024-03-29T01:38:40;47.40;;;5.88;;
33413;SDS011;60055;41.884;12.534;2024-03-29T01:41:05;53.65;;;7.43;;
33413;SDS011;60055;41.884;12.534;2024-03-29T01:43:32;48.95;;;6.63;;
33413;SDS011;60055;41.884;12.534;2024-03-29T01:45:57;43.35;;;7.05;;
33413;SDS011;60055;41.884;12.534;2024-03-29T01:48:23;44.45;;;5.63;;
33413;SDS011;60055;41.884;12.534;2024-03-29T01:50:50;47.03;;;6.90;;
33413;SDS011;60055;41.884;12.534;2024-03-29T01:53:18;43.97;;;6.53;;
33413;SDS011;60055;41.884;12.534;2024-03-29T01:55:44;37.58;;;6.05;;
33413;SDS011;60055;41.884;12.534;2024-03-29T01:58:10;46.75;;;6.20;;
33413;SDS011;60055;41.884;12.534;2024-03-29T02:00:46;41.85;;;6.28;;
33413;SDS011;60055;41.884;12.534;2024-03-29T02:03:24;41.85;;;5.85;;
33413;SDS011;60055;41.884;12.534;2024-03-29T02:05:50;43.50;;;6.32;;
33413;SDS011;60055;41.884;12.534;2024-03-29T02:08:16;45.67;;;5.70;;
33413;SDS011;60055;41.884;12.534;2024-03-29T02:10:42;46.28;;;5.97;;
33413;SDS011;60055;41.884;12.534;2024-03-29T02:13:08;47.10;;;6.95;;
33413;SDS011;60055;41.884;12.534;2024-03-29T02:15:35;44.67;;;6.65;;
33413;SDS011;60055;41.884;12.534;2024-03-29T02:18:00;48.13;;;6.15;;
33413;SDS011;60055;41.884;12.534;2024-03-29T02:20:26;51.30;;;6.43;;
33413;SDS011;60055;41.884;12.534;2024-03-29T02:22:57;42.38;;;6.40;;
33413;SDS011;60055;41.884;12.534;2024-03-29T02:25:27;44.88;;;6.32;;
33413;SDS011;60055;41.884;12.534;2024-03-29T02:27:53;49.65;;;6.82;;
33413;SDS011;60055;41.884;12.534;2024-03-29T02:30:19;48.72;;;6.60;;
33413;SDS011;60055;41.884;12.534;2024-03-29T02:32:45;55.08;;;6.85;;
33413;SDS011;60055;41.884;12.534;2024-03-29T02:35:11;62.00;;;7.75;;
33413;SDS011;60055;41.884;12.534;2024-03-29T02:37:37;66.63;;;8.35;;
33413;SDS011;60055;41.884;12.534;2024-03-29T02:40:03;49.45;;;7.15;;
33413;SDS011;60055;41.884;12.534;2024-03-29T02:42:30;66.80;;;7.63;;
33413;SDS011;60055;41.884;12.534;2024-03-29T02:44:55;64.30;;;8.07;;
33413;SDS011;60055;41.884;12.534;2024-03-29T02:47:21;62.92;;;7.30;;
33413;SDS011;60055;41.884;12.534;2024-03-29T02:49:47;67.25;;;7.50;;
33413;SDS011;60055;41.884;12.534;2024-03-29T02:52:13;65.72;;;8.32;;
33413;SDS011;60055;41.884;12.534;2024-03-29T02:54:39;70.45;;;7.97;;
33413;SDS011;60055;41.884;12.534;2024-03-29T02:57:05;70.75;;;8.43;;
33413;SDS011;60055;41.884;12.534;2024-03-29T02:59:31;74.97;;;8.38;;
33413;SDS011;60055;41.884;12.534;2024-03-29T03:01:57;71.00;;;9.10;;
33413;SDS011;60055;41.884;12.534;2024-03-29T03:04:22;79.85;;;9.05;;
33413;SDS011;60055;41.884;12.534;2024-03-29T03:06:48;66.53;;;8.63;;
33413;SDS011;60055;41.884;12.534;2024-03-29T03:09:14;75.68;;;8.55;;
33413;SDS011;60055;41.884;12.534;2024-03-29T03:14:24;70.43;;;8.70;;
33413;SDS011;60055;41.884;12.534;2024-03-29T03:16:50;83.07;;;8.80;;
33413;SDS011;60055;41.884;12.534;2024-03-29T03:19:15;80.43;;;8.73;;
33413;SDS011;60055;41.884;12.534;2024-03-29T03:21:41;69.47;;;8.18;;
33413;SDS011;60055;41.884;12.534;2024-03-29T03:24:07;87.07;;;8.43;;
33413;SDS011;60055;41.884;12.534;2024-03-29T03:26:32;80.57;;;8.73;;
33413;SDS011;60055;41.884;12.534;2024-03-29T03:28:58;81.53;;;8.57;;
33413;SDS011;60055;41.884;12.534;2024-03-29T03:31:23;78.20;;;9.50;;
33413;SDS011;60055;41.884;12.534;2024-03-29T03:33:49;81.45;;;9.43;;
33413;SDS011;60055;41.884;12.534;2024-03-29T03:36:15;86.82;;;8.77;;
33413;SDS011;60055;41.884;12.534;2024-03-29T03:38:40;80.18;;;8.70;;
33413;SDS011;60055;41.884;12.534;2024-03-29T03:41:06;78.72;;;9.48;;
33413;SDS011;60055;41.884;12.534;2024-03-29T03:43:32;75.28;;;9.43;;
33413;SDS011;60055;41.884;12.534;2024-03-29T03:46:01;104.93;;;9.68;;
33413;SDS011;60055;41.884;12.534;2024-03-29T03:48:27;85.10;;;9.75;;
33413;SDS011;60055;41.884;12.534;2024-03-29T03:50:56;83.28;;;7.82;;
33413;SDS011;60055;41.884;12.534;2024-03-29T03:53:22;78.53;;;8.68;;
33413;SDS011;60055;41.884;12.534;2024-03-29T03:55:48;77.82;;;8.68;;
33413;SDS011;60055;41.884;12.534;2024-03-29T03:58:14;79.47;;;9.48;;
33413;SDS011;60055;41.884;12.534;2024-03-29T04:00:39;72.25;;;8.73;;
33413;SDS011;60055;41.884;12.534;2024-03-29T04:03:05;72.13;;;8.02;;
33413;SDS011;60055;41.884;12.534;2024-03-29T04:05:31;80.18;;;7.97;;
33413;SDS011;60055;41.884;12.534;2024-03-29T04:07:57;83.70;;;8.88;;
33413;SDS011;60055;41.884;12.534;2024-03-29T04:10:24;83.75;;;8.60;;
33413;SDS011;60055;41.884;12.534;2024-03-29T04:12:50;82.85;;;8.25;;
33413;SDS011;60055;41.884;12.534;2024-03-29T04:15:16;75.25;;;8.02;;
33413;SDS011;60055;41.884;12.534;2024-03-29T04:17:42;77.38;;;8.88;;
33413;SDS011;60055;41.884;12.534;2024-03-29T04:20:07;67.72;;;7.82;;
33413;SDS011;60055;41.884;12.534;2024-03-29T04:22:34;67.05;;;7.45;;
33413;SDS011;60055;41.884;12.534;2024-03-29T04:24:59;84.50;;;9.30;;
33413;SDS011;60055;41.884;12.534;2024-03-29T04:27:25;72.57;;;8.65;;
33413;SDS011;60055;41.884;12.534;2024-03-29T04:29:51;82.05;;;8.07;;
33413;SDS011;60055;41.884;12.534;2024-03-29T04:32:18;73.60;;;8.32;;
33413;SDS011;60055;41.884;12.534;2024-03-29T04:34:47;70.65;;;8.07;;
33413;SDS011;60055;41.884;12.534;2024-03-29T04:37:13;67.97;;;8.32;;
33413;SDS011;60055;41.884;12.534;2024-03-29T04:39:40;63.72;;;7.65;;
33413;SDS011;60055;41.884;12.534;2024-03-29T04:42:07;76.82;;;8.45;;
33413;SDS011;60055;41.884;12.534;2024-03-29T04:44:33;68.85;;;7.88;;
33413;SDS011;60055;41.884;12.534;2024-03-29T04:46:59;66.82;;;7.88;;
33413;SDS011;60055;41.884;12.534;2024-03-29T04:49:24;79.28;;;9.00;;
33413;SDS011;60055;41.884;12.534;2024-03-29T04:51:58;71.60;;;9.02;;
33413;SDS011;60055;41.884;12.534;2024-03-29T04:54:24;65.00;;;7.18;;
33413;SDS011;60055;41.884;12.534;2024-03-29T04:56:50;59.78;;;7.70;;
33413;SDS011;60055;41.884;12.534;2024-03-29T04:59:17;65.82;;;7.22;;
33413;SDS011;60055;41.884;12.534;2024-03-29T05:01:43;58.92;;;7.88;;
33413;SDS011;60055;41.884;12.534;2024-03-29T05:04:09;55.67;;;7.60;;
33413;SDS011;60055;41.884;12.534;2024-03-29T05:06:35;62.22;;;7.78;;
33413;SDS011;60055;41.884;12.534;2024-03-29T05:09:01;67.18;;;7.75;;
33413;SDS011;60055;41.884;12.534;2024-03-29T05:11:27;50.58;;;7.35;;
33413;SDS011;60055;41.884;12.534;2024-03-29T05:13:52;59.17;;;6.57;;
33413;SDS011;60055;41.884;12.534;2024-03-29T05:16:18;53.45;;;7.70;;
33413;SDS011;60055;41.884;12.534;2024-03-29T05:18:46;49.88;;;7.03;;
33413;SDS011;60055;41.884;12.534;2024-03-29T05:21:12;57.28;;;7.93;;
33413;SDS011;60055;41.884;12.534;2024-03-29T05:23:38;54.47;;;7.55;;
33413;SDS011;60055;41.884;12.534;2024-03-29T05:26:03;48.70;;;7.13;;
33413;SDS011;60055;41.884;12.534;2024-03-29T05:28:29;44.20;;;7.20;;
33413;SDS011;60055;41.884;12.534;2024-03-29T05:30:54;51.20;;;7.72;;
33413;SDS011;60055;41.884;12.534;2024-03-29T05:33:20;52.40;;;9.20;;
33413;SDS011;60055;41.884;12.534;2024-03-29T05:35:46;52.78;;;8.15;;
33413;SDS011;60055;41.884;12.534;2024-03-29T05:38:12;58.15;;;8.82;;
33413;SDS011;60055;41.884;12.534;2024-03-29T05:40:37;47.38;;;8.52;;
33413;SDS011;60055;41.884;12.534;2024-03-29T05:43:04;55.72;;;7.70;;
33413;SDS011;60055;41.884;12.534;2024-03-29T05:45:30;48.83;;;7.22;;
33413;SDS011;60055;41.884;12.534;2024-03-29T05:47:56;56.55;;;8.18;;
33413;SDS011;60055;41.884;12.534;2024-03-29T05:50:23;46.83;;;6.50;;
33413;SDS011;60055;41.884;12.534;2024-03-29T05:52:50;43.00;;;6.97;;
33413;SDS011;60055;41.884;12.534;2024-03-29T05:55:17;49.85;;;7.53;;
33413;SDS011;60055;41.884;12.534;2024-03-29T05:57:43;41.90;;;6.72;;
33413;SDS011;60055;41.884;12.534;2024-03-29T06:00:13;38.90;;;6.30;;
33413;SDS011;60055;41.884;12.534;2024-03-29T06:02:40;56.85;;;7.80;;
33413;SDS011;60055;41.884;12.534;2024-03-29T06:05:06;48.70;;;7.13;;
33413;SDS011;60055;41.884;12.534;2024-03-29T06:07:33;48.45;;;6.85;;
33413;SDS011;60055;41.884;12.534;2024-03-29T06:09:59;63.10;;;7.43;;
33413;SDS011;60055;41.884;12.534;2024-03-29T06:12:26;51.25;;;7.28;;
33413;SDS011;60055;41.884;12.534;2024-03-29T06:14:52;63.28;;;7.72;;
33413;SDS011;60055;41.884;12.534;2024-03-29T06:20:02;51.15;;;7.75;;
33413;SDS011;60055;41.884;12.534;2024-03-29T06:22:29;57.13;;;8.25;;
33413;SDS011;60055;41.884;12.534;2024-03-29T06:24:55;50.85;;;7.95;;
33413;SDS011;60055;41.884;12.534;2024-03-29T06:27:27;53.95;;;8.93;;
33413;SDS011;60055;41.884;12.534;2024-03-29T06:29:52;47.58;;;7.60;;
33413;SDS011;60055;41.884;12.534;2024-03-29T06:32:18;58.05;;;8.48;;
33413;SDS011;60055;41.884;12.534;2024-03-29T06:34:44;58.58;;;8.32;;
33413;SDS011;60055;41.884;12.534;2024-03-29T06:37:10;52.70;;;8.00;;
33413;SDS011;60055;41.884;12.534;2024-03-29T06:39:36;54.30;;;8.15;;
33413;SDS011;60055;41.884;12.534;2024-03-29T06:42:02;61.25;;;12.10;;
33413;SDS011;60055;41.884;12.534;2024-03-29T06:44:27;47.13;;;7.57;;
33413;SDS011;60055;41.884;12.534;2024-03-29T06:46:53;51.67;;;7.28;;
33413;SDS011;60055;41.884;12.534;2024-03-29T06:49:19;51.17;;;7.00;;
33413;SDS011;60055;41.884;12.534;2024-03-29T06:51:45;45.97;;;6.47;;
33413;SDS011;60055;41.884;12.534;2024-03-29T06:54:10;48.67;;;7.10;;
33413;SDS011;60055;41.884;12.534;2024-03-29T06:56:36;52.20;;;7.65;;
33413;SDS011;60055;41.884;12.534;2024-03-29T06:59:02;43.78;;;6.15;;
33413;SDS011;60055;41.884;12.534;2024-03-29T07:01:27;50.38;;;5.90;;
33413;SDS011;60055;41.884;12.534;2024-03-29T07:03:53;43.83;;;7.07;;
33413;SDS011;60055;41.884;12.534;2024-03-29T07:06:18;49.03;;;6.45;;
33413;SDS011;60055;41.884;12.534;2024-03-29T07:08:44;51.47;;;7.13;;
33413;SDS011;60055;41.884;12.534;2024-03-29T07:11:10;48.60;;;6.78;;
33413;SDS011;60055;41.884;12.534;2024-03-29T07:13:36;56.33;;;7.75;;
33413;SDS011;60055;41.884;12.534;2024-03-29T07:16:02;38.88;;;6.65;;
33413;SDS011;60055;41.884;12.534;2024-03-29T07:18:28;45.92;;;6.05;;
33413;SDS011;60055;41.884;12.534;2024-03-29T07:20:54;53.40;;;6.80;;
33413;SDS011;60055;41.884;12.534;2024-03-29T07:23:20;49.42;;;6.75;;
33413;SDS011;60055;41.884;12.534;2024-03-29T07:25:56;47.88;;;6.40;;
33413;SDS011;60055;41.884;12.534;2024-03-29T07:28:29;43.30;;;6.82;;
33413;SDS011;60055;41.884;12.534;2024-03-29T07:30:55;50.85;;;6.40;;
33413;SDS011;60055;41.884;12.534;2024-03-29T07:33:24;51.42;;;6.63;;
33413;SDS011;60055;41.884;12.534;2024-03-29T07:35:53;45.92;;;6.28;;
33413;SDS011;60055;41.884;12.534;2024-03-29T07:38:19;52.22;;;6.57;;
33413;SDS011;60055;41.884;12.534;2024-03-29T07:40:46;56.42;;;6.40;;
33413;SDS011;60055;41.884;12.534;2024-03-29T07:43:12;47.90;;;6.85;;
33413;SDS011;60055;41.884;12.534;2024-03-29T07:45:42;54.40;;;6.97;;
33413;SDS011;60055;41.884;12.534;2024-03-29T07:48:11;49.35;;;6.25;;
33413;SDS011;60055;41.884;12.534;2024-03-29T07:50:38;47.08;;;5.53;;
33413;SDS011;60055;41.884;12.534;2024-03-29T07:53:04;45.47;;;5.97;;
33413;SDS011;60055;41.884;12.534;2024-03-29T07:55:30;51.80;;;6.28;;
33413;SDS011;60055;41.884;12.534;2024-03-29T07:57:55;48.78;;;5.85;;
33413;SDS011;60055;41.884;12.534;2024-03-29T08:00:21;45.08;;;5.72;;
33413;SDS011;60055;41.884;12.534;2024-03-29T08:02:47;41.58;;;5.35;;
33413;SDS011;60055;41.884;12.534;2024-03-29T08:05:13;48.33;;;5.35;;
33413;SDS011;60055;41.884;12.534;2024-03-29T08:07:38;50.72;;;6.30;;
33413;SDS011;60055;41.884;12.534;2024-03-29T08:10:04;42.03;;;5.93;;
33413;SDS011;60055;41.884;12.534;2024-03-29T08:12:31;40.45;;;5.60;;
33413;SDS011;60055;41.884;12.534;2024-03-29T08:14:57;39.97;;;5.70;;
33413;SDS011;60055;41.884;12.534;2024-03-29T08:17:23;45.13;;;5.57;;
33413;SDS011;60055;41.884;12.534;2024-03-29T08:19:49;32.50;;;4.60;;
33413;SDS011;60055;41.884;12.534;2024-03-29T08:22:15;31.90;;;4.80;;
33413;SDS011;60055;41.884;12.534;2024-03-29T08:24:41;34.63;;;4.90;;
33413;SDS011;60055;41.884;12.534;2024-03-29T08:27:06;39.63;;;5.32;;
33413;SDS011;60055;41.884;12.534;2024-03-29T08:29:32;28.75;;;4.45;;
33413;SDS011;60055;41.884;12.534;2024-03-29T08:31:57;31.00;;;4.47;;
33413;SDS011;60055;41.884;12.534;2024-03-29T08:34:23;22.33;;;3.60;;
33413;SDS011;60055;41.884;12.534;2024-03-29T08:36:49;27.88;;;4.45;;
33413;SDS011;60055;41.884;12.534;2024-03-29T08:39:15;36.75;;;3.55;;
33413;SDS011;60055;41.884;12.534;2024-03-29T08:41:41;28.60;;;4.10;;
33413;SDS011;60055;41.884;12.534;2024-03-29T08:44:07;38.08;;;3.88;;
33413;SDS011;60055;41.884;12.534;2024-03-29T08:46:32;32.20;;;3.33;;
33413;SDS011;60055;41.884;12.534;2024-03-29T08:48:58;28.90;;;3.40;;
33413;SDS011;60055;41.884;12.534;2024-03-29T08:51:23;32.92;;;3.80;;
33413;SDS011;60055;41.884;12.534;2024-03-29T08:53:49;29.83;;;4.35;;
33413;SDS011;60055;41.884;12.534;2024-03-29T08:56:15;37.33;;;4.53;;
33413;SDS011;60055;41.884;12.534;2024-03-29T08:58:40;34.20;;;4.78;;
33413;SDS011;60055;41.884;12.534;2024-03-29T09:01:06;44.70;;;4.97;;
33413;SDS011;60055;41.884;12.534;2024-03-29T09:03:32;74.70;;;6.95;;
33413;SDS011;60055;41.884;12.534;2024-03-29T09:05:58;55.53;;;6.32;;
33413;SDS011;60055;41.884;12.534;2024-03-29T09:08:23;72.10;;;8.20;;
33413;SDS011;60055;41.884;12.534;2024-03-29T09:10:49;70.72;;;9.38;;
33413;SDS011;60055;41.884;12.534;2024-03-29T09:13:15;92.28;;;8.93;;
33413;SDS011;60055;41.884;12.534;2024-03-29T09:15:40;101.43;;;10.27;;
33413;SDS011;60055;41.884;12.534;2024-03-29T09:18:06;116.78;;;11.52;;
33413;SDS011;60055;41.884;12.534;2024-03-29T09:21:01;107.28;;;10.40;;
33413;SDS011;60055;41.884;12.534;2024-03-29T09:23:27;110.00;;;10.75;;
33413;SDS011;60055;41.884;12.534;2024-03-29T09:25:54;109.72;;;10.80;;
33413;SDS011;60055;41.884;12.534;2024-03-29T09:28:21;93.75;;;10.23;;
33413;SDS011;60055;41.884;12.534;2024-03-29T09:30:47;100.70;;;10.13;;
33413;SDS011;60055;41.884;12.534;2024-03-29T09:33:13;99.03;;;10.20;;
33413;SDS011;60055;41.884;12.534;2024-03-29T09:35:39;98.68;;;10.13;;
33413;SDS011;60055;41.884;12.534;2024-03-29T09:38:04;87.85;;;10.65;;
33413;SDS011;60055;41.884;12.534;2024-03-29T09:40:30;93.78;;;10.93;;
33413;SDS011;60055;41.884;12.534;2024-03-29T09:42:57;102.88;;;10.32;;
33413;SDS011;60055;41.884;12.534;2024-03-29T09:45:29;124.55;;;11.35;;
33413;SDS011;60055;41.884;12.534;2024-03-29T09:47:59;100.68;;;11.27;;
33413;SDS011;60055;41.884;12.534;2024-03-29T09:50:28;137.38;;;12.05;;
33413;SDS011;60055;41.884;12.534;2024-03-29T09:52:54;114.95;;;11.80;;
33413;SDS011;60055;41.884;12.534;2024-03-29T09:55:21;119.20;;;11.65;;
33413;SDS011;60055;41.884;12.534;2024-03-29T09:57:47;99.57;;;9.75;;
33413;SDS011;60055;41.884;12.534;2024-03-29T10:00:13;115.38;;;10.65;;
33413;SDS011;60055;41.884;12.534;2024-03-29T10:02:39;112.75;;;10.93;;
33413;SDS011;60055;41.884;12.534;2024-03-29T10:05:06;114.72;;;10.65;;
33413;SDS011;60055;41.884;12.534;2024-03-29T10:07:33;112.80;;;10.40;;
33413;SDS011;60055;41.884;12.534;2024-03-29T10:10:01;111.88;;;10.65;;
33413;SDS011;60055;41.884;12.534;2024-03-29T10:12:28;108.38;;;10.73;;
33413;SDS011;60055;41.884;12.534;2024-03-29T10:14:53;111.95;;;11.88;;
33413;SDS011;60055;41.884;12.534;2024-03-29T10:17:33;109.32;;;11.55;;
33413;SDS011;60055;41.884;12.534;2024-03-29T10:20:02;113.47;;;10.65;;
33413;SDS011;60055;41.884;12.534;2024-03-29T10:22:28;96.30;;;10.73;;
33413;SDS011;60055;41.884;12.534;2024-03-29T10:24:56;105.18;;;10.60;;
33413;SDS011;60055;41.884;12.534;2024-03-29T10:27:24;103.13;;;9.32;;
33413;SDS011;60055;41.884;12.534;2024-03-29T10:29:52;108.78;;;10.93;;
33413;SDS011;60055;41.884;12.534;2024-03-29T10:32:18;111.47;;;11.43;;
33413;SDS011;60055;41.884;12.534;2024-03-29T10:34:43;105.97;;;11.15;;
33413;SDS011;60055;41.884;12.534;2024-03-29T10:37:09;104.32;;;11.10;;
33413;SDS011;60055;41.884;12.534;2024-03-29T10:39:35;112.47;;;10.32;;
33413;SDS011;60055;41.884;12.534;2024-03-29T10:42:01;101.28;;;10.75;;
33413;SDS011;60055;41.884;12.534;2024-03-29T10:44:28;95.78;;;9.00;;
33413;SDS011;60055;41.884;12.534;2024-03-29T10:46:57;110.90;;;10.90;;
33413;SDS011;60055;41.884;12.534;2024-03-29T10:49:24;98.60;;;9.77;;
33413;SDS011;60055;41.884;12.534;2024-03-29T10:51:52;86.07;;;8.40;;
33413;SDS011;60055;41.884;12.534;2024-03-29T10:54:18;95.13;;;8.90;;
33413;SDS011;60055;41.884;12.534;2024-03-29T10:56:46;87.63;;;8.95;;
33413;SDS011;60055;41.884;12.534;2024-03-29T11:02:46;82.03;;;8.07;;
33413;SDS011;60055;41.884;12.534;2024-03-29T11:05:32;88.28;;;9.13;;
33413;SDS011;60055;41.884;12.534;2024-03-29T11:07:58;85.03;;;9.23;;
33413;SDS011;60055;41.884;12.534;2024-03-29T11:10:36;84.38;;;9.38;;
33413;SDS011;60055;41.884;12.534;2024-03-29T11:16:07;82.00;;;9.48;;
33413;SDS011;60055;41.884;12.534;2024-03-29T11:18:33;104.32;;;9.55;;
33413;SDS011;60055;41.884;12.534;2024-03-29T11:21:00;95.60;;;10.07;;
33413;SDS011;60055;41.884;12.534;2024-03-29T11:23:27;99.90;;;10.05;;
33413;SDS011;60055;41.884;12.534;2024-03-29T11:25:56;91.75;;;9.25;;
33413;SDS011;60055;41.884;12.534;2024-03-29T11:30:52;92.85;;;9.00;;
33413;SDS011;60055;41.884;12.534;2024-03-29T11:33:27;93.22;;;9.77;;
33413;SDS011;60055;41.884;12.534;2024-03-29T11:35:53;94.60;;;9.25;;
33413;SDS011;60055;41.884;12.534;2024-03-29T11:38:19;93.32;;;9.90;;
33413;SDS011;60055;41.884;12.534;2024-03-29T11:40:54;105.80;;;10.18;;
33413;SDS011;60055;41.884;12.534;2024-03-29T11:43:25;82.40;;;8.18;;
33413;SDS011;60055;41.884;12.534;2024-03-29T11:45:53;96.22;;;9.57;;
33413;SDS011;60055;41.884;12.534;2024-03-29T11:48:23;90.57;;;10.75;;
33413;SDS011;60055;41.884;12.534;2024-03-29T11:50:52;94.32;;;9.80;;
33413;SDS011;60055;41.884;12.534;2024-03-29T11:53:18;76.68;;;8.10;;
33413;SDS011;60055;41.884;12.534;2024-03-29T11:55:47;101.78;;;9.15;;
33413;SDS011;60055;41.884;12.534;2024-03-29T11:58:22;87.70;;;9.65;;
33413;SDS011;60055;41.884;12.534;2024-03-29T12:00:49;102.70;;;9.75;;
33413;SDS011;60055;41.884;12.534;2024-03-29T12:03:16;95.07;;;10.32;;
33413;SDS011;60055;41.884;12.534;2024-03-29T12:05:45;83.95;;;8.82;;
33413;SDS011;60055;41.884;12.534;2024-03-29T12:08:12;95.57;;;9.88;;
33413;SDS011;60055;41.884;12.534;2024-03-29T12:10:37;87.32;;;8.80;;
33413;SDS011;60055;41.884;12.534;2024-03-29T12:13:07;78.68;;;8.07;;
33413;SDS011;60055;41.884;12.534;2024-03-29T12:15:33;76.40;;;7.60;;
33413;SDS011;60055;41.884;12.534;2024-03-29T12:18:03;79.53;;;7.75;;
33413;SDS011;60055;41.884;12.534;2024-03-29T12:20:33;82.00;;;8.40;;
33413;SDS011;60055;41.884;12.534;2024-03-29T12:23:05;82.15;;;7.78;;
33413;SDS011;60055;41.884;12.534;2024-03-29T12:25:32;69.70;;;7.53;;
33413;SDS011;60055;41.884;12.534;2024-03-29T12:27:59;73.75;;;7.53;;
33413;SDS011;60055;41.884;12.534;2024-03-29T12:30:25;61.53;;;7.35;;
33413;SDS011;60055;41.884;12.534;2024-03-29T12:33:01;61.95;;;6.85;;
33413;SDS011;60055;41.884;12.534;2024-03-29T12:35:27;68.05;;;6.35;;
33413;SDS011;60055;41.884;12.534;2024-03-29T12:37:55;59.47;;;6.78;;
33413;SDS011;60055;41.884;12.534;2024-03-29T12:40:23;58.75;;;6.18;;
33413;SDS011;60055;41.884;12.534;2024-03-29T12:42:50;59.47;;;6.45;;
33413;SDS011;60055;41.884;12.534;2024-03-29T12:45:19;64.20;;;6.15;;
33413;SDS011;60055;41.884;12.534;2024-03-29T12:47:45;59.22;;;6.20;;
33413;SDS011;60055;41.884;12.534;2024-03-29T12:52:53;69.68;;;6.22;;
33413;SDS011;60055;41.884;12.534;2024-03-29T12:55:20;62.92;;;6.28;;
33413;SDS011;60055;41.884;12.534;2024-03-29T12:57:46;63.58;;;6.53;;
33413;SDS011;60055;41.884;12.534;2024-03-29T13:00:12;64.03;;;5.82;;
33413;SDS011;60055;41.884;12.534;2024-03-29T13:02:38;53.55;;;5.55;;
33413;SDS011;60055;41.884;12.534;2024-03-29T13:05:06;56.97;;;6.00;;
33413;SDS011;60055;41.884;12.534;2024-03-29T13:07:32;60.42;;;5.63;;
33413;SDS011;60055;41.884;12.534;2024-03-29T13:10:01;56.35;;;5.10;;
33413;SDS011;60055;41.884;12.534;2024-03-29T13:12:44;54.05;;;5.88;;
33413;SDS011;60055;41.884;12.534;2024-03-29T13:15:34;59.78;;;5.53;;
33413;SDS011;60055;41.884;12.534;2024-03-29T13:18:01;49.72;;;5.35;;
33413;SDS011;60055;41.884;12.534;2024-03-29T13:20:27;53.47;;;5.20;;
33413;SDS011;60055;41.884;12.534;2024-03-29T13:22:52;54.92;;;5.47;;
33413;SDS011;60055;41.884;12.534;2024-03-29T13:25:19;56.78;;;5.75;;
33413;SDS011;60055;41.884;12.534;2024-03-29T13:27:46;46.88;;;5.03;;
33413;SDS011;60055;41.884;12.534;2024-03-29T13:30:13;53.75;;;4.63;;
33413;SDS011;60055;41.884;12.534;2024-03-29T13:32:42;43.05;;;4.93;;
33413;SDS011;60055;41.884;12.534;2024-03-29T13:35:10;36.15;;;4.30;;
33413;SDS011;60055;41.884;12.534;2024-03-29T13:37:37;45.47;;;3.97;;
33413;SDS011;60055;41.884;12.534;2024-03-29T13:40:03;46.38;;;4.22;;
33413;SDS011;60055;41.884;12.534;2024-03-29T13:42:30;49.10;;;4.40;;
33413;SDS011;60055;41.884;12.534;2024-03-29T13:44:56;46.03;;;4.55;;
33413;SDS011;60055;41.884;12.534;2024-03-29T13:47:21;45.53;;;4.57;;
33413;SDS011;60055;41.884;12.534;2024-03-29T13:49:47;49.45;;;4.70;;
33413;SDS011;60055;41.884;12.534;2024-03-29T13:52:15;54.30;;;5.00;;
33413;SDS011;60055;41.884;12.534;2024-03-29T13:54:44;47.45;;;6.20;;
33413;SDS011;60055;41.884;12.534;2024-03-29T13:57:13;52.83;;;6.30;;
33413;SDS011;60055;41.884;12.534;2024-03-29T13:59:39;36.97;;;4.97;;
33413;SDS011;60055;41.884;12.534;2024-03-29T14:02:16;38.15;;;4.65;;
33413;SDS011;60055;41.884;12.534;2024-03-29T14:04:43;51.70;;;5.47;;
33413;SDS011;60055;41.884;12.534;2024-03-29T14:07:09;59.63;;;6.28;;
33413;SDS011;60055;41.884;12.534;2024-03-29T14:09:39;65.43;;;7.00;;
33413;SDS011;60055;41.884;12.534;2024-03-29T14:12:07;80.38;;;7.13;;
33413;SDS011;60055;41.884;12.534;2024-03-29T14:14:33;64.28;;;6.82;;
33413;SDS011;60055;41.884;12.534;2024-03-29T14:16:59;65.03;;;6.43;;
33413;SDS011;60055;41.884;12.534;2024-03-29T14:19:32;62.10;;;6.07;;
33413;SDS011;60055;41.884;12.534;2024-03-29T14:21:59;51.53;;;5.40;;
33413;SDS011;60055;41.884;12.534;2024-03-29T14:24:25;58.70;;;5.78;;
33413;SDS011;60055;41.884;12.534;2024-03-29T14:26:50;69.93;;;5.93;;
33413;SDS011;60055;41.884;12.534;2024-03-29T14:29:17;61.17;;;6.20;;
33413;SDS011;60055;41.884;12.534;2024-03-29T14:31:46;58.90;;;6.30;;
33413;SDS011;60055;41.884;12.534;2024-03-29T14:34:11;58.50;;;6.18;;